createdAt,value
2018-11-25T00:00:23.383Z,97314.44
2018-11-25T00:01:28.151Z,97309.45
2018-11-25T00:02:32.847Z,97311.50
2018-11-25T00:03:38.214Z,97306.97
2018-11-25T00:04:43.829Z,97306.90
2018-11-25T00:05:49.181Z,97310.56
2018-11-25T00:06:54.138Z,97302.22
2018-11-25T00:07:58.987Z,97296.50
2018-11-25T00:09:04.415Z,97298.12
2018-11-25T00:10:09.351Z,97299.66
2018-11-25T00:11:14.855Z,97300.47
2018-11-25T00:12:19.550Z,97301.68
2018-11-25T00:13:24.202Z,97293.41
2018-11-25T00:14:29.070Z,97293.81
2018-11-25T00:15:33.912Z,97293.77
2018-11-25T00:16:39.486Z,97305.34
2018-11-25T00:17:45.037Z,97297.98
2018-11-25T00:18:50.663Z,97299.23
2018-11-25T00:19:56.199Z,97295.93
2018-11-25T00:21:01.187Z,97300.47
2018-11-25T00:22:06.967Z,97297.14
2018-11-25T00:23:12.200Z,97300.03
2018-11-25T00:24:17.101Z,97300.88
2018-11-25T00:25:21.671Z,97300.37
2018-11-25T00:26:26.454Z,97290.84
2018-11-25T00:27:31.858Z,97294.14
2018-11-25T00:28:39.755Z,97299.62
2018-11-25T00:29:46.356Z,97300.67
2018-11-25T00:30:50.955Z,97298.62
2018-11-25T00:31:56.812Z,97300.61
2018-11-25T00:33:01.586Z,97296.36
2018-11-25T00:34:06.346Z,97297.61
2018-11-25T00:35:11.938Z,97293.88
2018-11-25T00:36:16.854Z,97301.34
2018-11-25T00:37:21.892Z,97300.09
2018-11-25T00:38:26.504Z,97299.97
2018-11-25T00:39:32.559Z,97298.28
2018-11-25T00:40:37.257Z,97299.52
2018-11-25T00:41:41.882Z,97296.66
2018-11-25T00:42:47.212Z,97294.98
2018-11-25T00:43:53.351Z,97297.47
2018-11-25T00:44:59.430Z,97291.61
2018-11-25T00:46:04.371Z,97290.81
2018-11-25T00:47:10.062Z,97294.98
2018-11-25T00:48:15.140Z,97299.29
2018-11-25T00:49:20.377Z,97297.17
2018-11-25T00:50:25.117Z,97287.65
2018-11-25T00:51:30.500Z,97288.02
2018-11-25T00:52:35.168Z,97292.49
2018-11-25T00:53:40.561Z,97285.02
2018-11-25T00:54:46.459Z,97292.56
2018-11-25T00:55:51.372Z,97290.14
2018-11-25T00:56:56.052Z,97287.00
2018-11-25T00:58:00.721Z,97285.25
2018-11-25T00:59:05.484Z,97283.64
2018-11-25T01:00:11.193Z,97286.43
2018-11-25T01:01:15.821Z,97284.38
2018-11-25T01:02:20.990Z,97288.55
2018-11-25T01:03:25.605Z,97285.32
2018-11-25T01:04:30.454Z,97281.22
2018-11-25T01:05:35.301Z,97287.00
2018-11-25T01:06:40.148Z,97288.25
2018-11-25T01:07:46.408Z,97286.63
2018-11-25T01:08:51.333Z,97285.83
2018-11-25T01:09:56.113Z,97289.86
2018-11-25T01:11:00.862Z,97286.50
2018-11-25T01:12:05.500Z,97288.62
2018-11-25T01:13:10.623Z,97286.50
2018-11-25T01:14:15.484Z,97289.86
2018-11-25T01:15:20.552Z,97288.98
2018-11-25T01:16:25.220Z,97293.39
2018-11-25T01:17:30.121Z,97291.78
2018-11-25T01:18:36.325Z,97298.08
2018-11-25T01:19:41.490Z,97293.53
2018-11-25T01:20:47.392Z,97298.88
2018-11-25T01:21:52.923Z,97291.11
2018-11-25T01:22:57.788Z,97288.62
2018-11-25T01:24:02.439Z,97281.15
2018-11-25T01:25:08.341Z,97282.83
2018-11-25T01:26:12.936Z,97284.52
2018-11-25T01:27:18.728Z,97283.70
2018-11-25T01:28:23.884Z,97278.36
2018-11-25T01:29:28.480Z,97279.30
2018-11-25T01:30:33.109Z,97285.77
2018-11-25T01:31:38.375Z,97283.20
2018-11-25T01:32:44.346Z,97284.81
2018-11-25T01:33:48.940Z,97283.13
2018-11-25T01:35:00.868Z,97290.17
2018-11-25T01:35:59.305Z,97291.92
2018-11-25T01:37:04.093Z,97287.30
2018-11-25T01:38:09.345Z,97288.62
2018-11-25T01:39:14.620Z,97290.67
2018-11-25T01:40:20.783Z,97289.86
2018-11-25T01:41:27.010Z,97286.56
2018-11-25T01:42:31.637Z,97291.61
2018-11-25T01:43:36.548Z,97286.63
2018-11-25T01:44:41.174Z,97283.34
2018-11-25T01:45:45.755Z,97282.83
2018-11-25T01:46:50.375Z,97282.09
2018-11-25T01:47:55.349Z,97280.84
2018-11-25T01:48:59.912Z,97285.39
2018-11-25T01:50:04.760Z,97288.25
2018-11-25T01:51:09.367Z,97281.22
2018-11-25T01:52:14.058Z,97283.70
2018-11-25T01:53:18.723Z,97291.25
2018-11-25T01:54:24.368Z,97283.41
2018-11-25T01:55:29.848Z,97280.48
2018-11-25T01:56:34.446Z,97283.84
2018-11-25T01:57:39.088Z,97281.28
2018-11-25T01:58:43.680Z,97275.06
2018-11-25T01:59:48.940Z,97281.28
2018-11-25T02:00:55.717Z,97275.80
2018-11-25T02:02:00.399Z,97277.48
2018-11-25T02:03:05.007Z,97273.81
2018-11-25T02:04:09.635Z,97273.08
2018-11-25T02:05:14.406Z,97270.95
2018-11-25T02:06:19.097Z,97277.55
2018-11-25T02:07:23.704Z,97272.94
2018-11-25T02:08:28.332Z,97272.50
2018-11-25T02:09:32.916Z,97270.45
2018-11-25T02:10:38.768Z,97271.19
2018-11-25T02:11:43.774Z,97267.15
2018-11-25T02:12:49.691Z,97267.52
2018-11-25T02:13:55.255Z,97265.03
2018-11-25T02:14:59.839Z,97266.64
2018-11-25T02:16:04.793Z,97262.54
2018-11-25T02:17:09.428Z,97263.72
2018-11-25T02:18:14.003Z,97263.72
2018-11-25T02:19:18.581Z,97266.58
2018-11-25T02:20:24.051Z,97264.16
2018-11-25T02:21:29.219Z,97262.98
2018-11-25T02:22:34.047Z,97267.15
2018-11-25T02:23:38.774Z,97266.27
2018-11-25T02:24:44.141Z,97269.20
2018-11-25T02:25:48.807Z,97270.08
2018-11-25T02:26:53.893Z,97268.47
2018-11-25T02:27:58.802Z,97268.91
2018-11-25T02:29:03.396Z,97270.59
2018-11-25T02:30:09.802Z,97261.94
2018-11-25T02:31:16.186Z,97266.11
2018-11-25T02:32:21.920Z,97257.09
2018-11-25T02:33:27.086Z,97262.52
2018-11-25T02:34:31.683Z,97255.48
2018-11-25T02:35:36.555Z,97261.27
2018-11-25T02:36:41.179Z,97257.67
2018-11-25T02:37:45.975Z,97260.59
2018-11-25T02:38:50.598Z,97253.98
2018-11-25T02:39:55.507Z,97254.41
2018-11-25T02:41:00.123Z,97250.75
2018-11-25T02:42:05.341Z,97260.70
2018-11-25T02:43:10.081Z,97253.61
2018-11-25T02:44:14.696Z,97249.43
2018-11-25T02:45:23.029Z,97252.06
2018-11-25T02:46:27.917Z,97249.20
2018-11-25T02:47:33.572Z,97252.87
2018-11-25T02:48:38.320Z,97257.41
2018-11-25T02:49:43.092Z,97250.37
2018-11-25T02:50:47.836Z,97252.94
2018-11-25T02:51:52.416Z,97248.33
2018-11-25T02:52:58.048Z,97248.83
2018-11-25T02:54:03.083Z,97246.71
2018-11-25T02:55:07.798Z,97252.42
2018-11-25T02:56:12.442Z,97258.55
2018-11-25T02:57:21.145Z,97249.94
2018-11-25T02:58:25.875Z,97252.36
2018-11-25T02:59:31.011Z,97249.87
2018-11-25T03:00:35.812Z,97248.99
2018-11-25T03:01:40.482Z,97249.39
2018-11-25T03:02:45.161Z,97251.45
2018-11-25T03:03:49.853Z,97247.75
2018-11-25T03:04:54.830Z,97248.99
2018-11-25T03:06:00.353Z,97249.06
2018-11-25T03:07:05.026Z,97252.87
2018-11-25T03:08:09.602Z,97240.92
2018-11-25T03:09:14.365Z,97244.22
2018-11-25T03:10:19.374Z,97247.38
2018-11-25T03:11:23.958Z,97246.13
2018-11-25T03:12:28.997Z,97247.08
2018-11-25T03:13:33.722Z,97250.81
2018-11-25T03:14:38.825Z,97245.84
2018-11-25T03:15:43.723Z,97247.89
2018-11-25T03:16:48.930Z,97254.98
2018-11-25T03:17:53.842Z,97251.18
2018-11-25T03:18:58.934Z,97254.85
2018-11-25T03:20:03.960Z,97250.45
2018-11-25T03:21:08.598Z,97246.71
2018-11-25T03:22:13.726Z,97243.34
2018-11-25T03:23:18.431Z,97247.95
2018-11-25T03:24:23.324Z,97247.52
2018-11-25T03:25:28.514Z,97242.47
2018-11-25T03:26:33.097Z,97243.27
2018-11-25T03:27:37.606Z,97238.23
2018-11-25T03:28:42.881Z,97240.28
2018-11-25T03:29:47.455Z,97244.45
2018-11-25T03:30:53.047Z,97241.96
2018-11-25T03:31:58.294Z,97246.09
2018-11-25T03:33:02.891Z,97237.75
2018-11-25T03:34:07.451Z,97247.64
2018-11-25T03:35:12.602Z,97243.54
2018-11-25T03:36:17.219Z,97241.86
2018-11-25T03:37:22.040Z,97241.34
2018-11-25T03:38:27.151Z,97240.47
2018-11-25T03:39:32.024Z,97241.28
2018-11-25T03:40:36.734Z,97237.91
2018-11-25T03:41:41.545Z,97239.97
2018-11-25T03:42:46.391Z,97239.53
2018-11-25T03:43:51.372Z,97226.78
2018-11-25T03:44:56.264Z,97233.87
2018-11-25T03:46:00.787Z,97237.11
2018-11-25T03:47:05.549Z,97237.11
2018-11-25T03:48:10.115Z,97237.48
2018-11-25T03:49:14.904Z,97237.48
2018-11-25T03:50:19.531Z,97230.01
2018-11-25T03:51:24.407Z,97232.50
2018-11-25T03:52:29.154Z,97231.63
2018-11-25T03:53:33.805Z,97229.06
2018-11-25T03:54:38.508Z,97226.64
2018-11-25T03:55:43.197Z,97230.38
2018-11-25T03:56:47.823Z,97228.83
2018-11-25T03:57:52.985Z,97228.90
2018-11-25T03:58:57.726Z,97231.32
2018-11-25T04:00:02.405Z,97226.48
2018-11-25T04:01:06.968Z,97234.39
2018-11-25T04:02:11.655Z,97229.04
2018-11-25T04:03:16.837Z,97229.48
2018-11-25T04:04:21.860Z,97231.56
2018-11-25T04:05:26.967Z,97237.75
2018-11-25T04:06:31.658Z,97236.14
2018-11-25T04:07:36.308Z,97233.69
2018-11-25T04:08:40.866Z,97241.22
2018-11-25T04:09:45.444Z,97236.75
2018-11-25T04:10:50.326Z,97239.61
2018-11-25T04:11:55.053Z,97240.42
2018-11-25T04:12:59.637Z,97237.13
2018-11-25T04:14:04.238Z,97243.34
2018-11-25T04:15:12.006Z,97242.23
2018-11-25T04:16:16.561Z,97238.57
2018-11-25T04:17:21.464Z,97239.75
2018-11-25T04:18:26.170Z,97241.36
2018-11-25T04:19:30.937Z,97244.36
2018-11-25T04:20:35.505Z,97244.36
2018-11-25T04:21:40.017Z,97245.60
2018-11-25T04:22:44.744Z,97242.23
2018-11-25T04:23:50.073Z,97247.14
2018-11-25T04:24:54.738Z,97242.54
2018-11-25T04:25:59.380Z,97245.84
2018-11-25T04:27:03.996Z,97241.73
2018-11-25T04:28:08.570Z,97242.17
2018-11-25T04:29:13.446Z,97240.48
2018-11-25T04:30:18.605Z,97242.47
2018-11-25T04:31:23.371Z,97236.98
2018-11-25T04:32:28.120Z,97243.61
2018-11-25T04:33:32.698Z,97236.95
2018-11-25T04:34:37.314Z,97239.36
2018-11-25T04:35:42.335Z,97239.36
2018-11-25T04:36:47.010Z,97235.19
2018-11-25T04:37:52.074Z,97236.00
2018-11-25T04:38:57.243Z,97239.30
2018-11-25T04:40:01.864Z,97237.25
2018-11-25T04:41:06.560Z,97242.16
2018-11-25T04:42:11.615Z,97235.05
2018-11-25T04:43:16.164Z,97245.02
2018-11-25T04:44:20.846Z,97244.95
2018-11-25T04:45:25.357Z,97243.70
2018-11-25T04:46:29.891Z,97244.14
2018-11-25T04:47:35.326Z,97245.52
2018-11-25T04:48:40.233Z,97247.71
2018-11-25T04:49:45.115Z,97247.34
2018-11-25T04:50:49.993Z,97244.72
2018-11-25T04:51:54.499Z,97245.45
2018-11-25T04:52:59.024Z,97247.95
2018-11-25T04:54:03.893Z,97244.58
2018-11-25T04:55:09.141Z,97252.41
2018-11-25T04:56:13.651Z,97248.61
2018-11-25T04:57:18.194Z,97243.27
2018-11-25T04:58:23.064Z,97251.17
2018-11-25T04:59:28.307Z,97248.24
2018-11-25T05:00:32.867Z,97250.80
2018-11-25T05:01:37.753Z,97247.27
2018-11-25T05:02:42.303Z,97243.61
2018-11-25T05:03:46.910Z,97243.72
2018-11-25T05:04:51.867Z,97242.47
2018-11-25T05:05:56.854Z,97248.19
2018-11-25T05:07:04.892Z,97235.00
2018-11-25T05:08:09.949Z,97236.31
2018-11-25T05:09:14.800Z,97235.88
2018-11-25T05:10:19.794Z,97233.45
2018-11-25T05:11:24.358Z,97235.51
2018-11-25T05:12:29.000Z,97230.09
2018-11-25T05:13:33.850Z,97231.33
2018-11-25T05:14:38.691Z,97236.25
2018-11-25T05:15:43.255Z,97237.48
2018-11-25T05:16:48.151Z,97238.80
2018-11-25T05:17:52.677Z,97240.86
2018-11-25T05:18:57.416Z,97236.69
2018-11-25T05:20:02.027Z,97237.42
2018-11-25T05:21:07.938Z,97233.76
2018-11-25T05:22:12.498Z,97238.00
2018-11-25T05:23:17.087Z,97233.09
2018-11-25T05:24:21.773Z,97232.28
2018-11-25T05:25:26.785Z,97233.89
2018-11-25T05:26:31.431Z,97231.77
2018-11-25T05:27:36.655Z,97230.90
2018-11-25T05:28:41.276Z,97227.53
2018-11-25T05:29:45.985Z,97227.42
2018-11-25T05:30:50.706Z,97219.95
2018-11-25T05:31:55.750Z,97224.97
2018-11-25T05:33:00.298Z,97224.53
2018-11-25T05:34:05.318Z,97225.34
2018-11-25T05:35:10.514Z,97224.87
2018-11-25T05:36:15.035Z,97216.08
2018-11-25T05:37:19.730Z,97223.62
2018-11-25T05:38:24.426Z,97218.13
2018-11-25T05:39:29.052Z,97219.31
2018-11-25T05:40:34.096Z,97227.88
2018-11-25T05:41:38.607Z,97228.77
2018-11-25T05:42:43.378Z,97224.22
2018-11-25T05:43:47.894Z,97228.02
2018-11-25T05:44:52.594Z,97232.20
2018-11-25T05:45:57.212Z,97227.66
2018-11-25T05:47:02.063Z,97223.55
2018-11-25T05:48:06.662Z,97228.97
2018-11-25T05:49:11.176Z,97221.94
2018-11-25T05:50:16.371Z,97225.60
2018-11-25T05:51:20.956Z,97226.91
2018-11-25T05:52:25.496Z,97223.69
2018-11-25T05:53:30.317Z,97223.36
2018-11-25T05:54:34.859Z,97220.87
2018-11-25T05:55:39.442Z,97224.50
2018-11-25T05:56:43.938Z,97231.53
2018-11-25T05:57:48.617Z,97229.04
2018-11-25T05:58:53.151Z,97229.91
2018-11-25T05:59:58.251Z,97227.42
2018-11-25T06:01:02.848Z,97231.16
2018-11-25T06:02:07.414Z,97227.83
2018-11-25T06:03:12.071Z,97229.52
2018-11-25T06:04:16.745Z,97231.56
2018-11-25T06:05:21.308Z,97229.14
2018-11-25T06:06:27.080Z,97232.52
2018-11-25T06:07:31.629Z,97227.53
2018-11-25T06:08:36.340Z,97230.90
2018-11-25T06:09:41.045Z,97230.90
2018-11-25T06:10:45.724Z,97229.22
2018-11-25T06:11:50.338Z,97234.50
2018-11-25T06:12:55.609Z,97228.70
2018-11-25T06:14:01.336Z,97231.56
2018-11-25T06:15:06.861Z,97227.42
2018-11-25T06:16:11.586Z,97231.16
2018-11-25T06:17:16.099Z,97230.76
2018-11-25T06:18:20.681Z,97227.80
2018-11-25T06:19:25.695Z,97228.23
2018-11-25T06:20:30.352Z,97228.67
2018-11-25T06:21:35.020Z,97227.47
2018-11-25T06:22:39.596Z,97225.34
2018-11-25T06:23:44.147Z,97229.91
2018-11-25T06:24:48.679Z,97227.83
2018-11-25T06:25:53.590Z,97230.02
2018-11-25T06:26:58.322Z,97224.97
2018-11-25T06:28:02.932Z,97226.98
2018-11-25T06:29:07.517Z,97224.94
2018-11-25T06:30:12.721Z,97222.55
2018-11-25T06:31:17.256Z,97222.19
2018-11-25T06:32:22.134Z,97229.66
2018-11-25T06:33:26.664Z,97226.42
2018-11-25T07:15:49.543Z,97237.77
2018-11-25T07:16:54.270Z,97240.10
2018-11-25T07:17:59.139Z,97232.56
2018-11-25T07:19:04.040Z,97238.80
2018-11-25T07:20:09.487Z,97240.47
2018-11-25T07:21:14.465Z,97240.11
2018-11-25T07:22:19.226Z,97234.94
2018-11-25T07:23:23.958Z,97234.27
2018-11-25T07:24:28.691Z,97246.05
2018-11-25T07:25:33.482Z,97239.16
2018-11-25T07:26:38.418Z,97242.09
2018-11-25T07:27:43.391Z,97242.53
2018-11-25T07:28:48.086Z,97246.33
2018-11-25T07:29:52.716Z,97240.98
2018-11-25T07:30:57.368Z,97245.96
2018-11-25T07:32:02.031Z,97245.33
2018-11-25T07:33:06.579Z,97241.22
2018-11-25T07:34:11.525Z,97241.22
2018-11-25T07:35:16.175Z,97244.08
2018-11-25T07:36:20.887Z,97248.39
2018-11-25T07:37:28.550Z,97245.03
2018-11-25T07:38:37.902Z,97243.05
2018-11-25T07:39:46.202Z,97248.46
2018-11-25T07:40:53.923Z,97243.85
2018-11-25T07:42:00.154Z,97247.08
2018-11-25T07:43:06.355Z,97235.51
2018-11-25T07:44:13.130Z,97235.95
2018-11-25T07:45:19.305Z,97237.39
2018-11-25T07:46:24.181Z,97236.28
2018-11-25T07:47:30.548Z,97236.66
2018-11-25T07:48:35.488Z,97238.34
2018-11-25T07:49:40.423Z,97232.12
2018-11-25T07:50:46.209Z,97237.39
2018-11-25T07:51:51.713Z,97238.88
2018-11-25T07:52:59.368Z,97233.39
2018-11-25T07:54:04.446Z,97234.89
2018-11-25T07:55:12.391Z,97229.78
2018-11-25T07:56:16.963Z,97230.22
2018-11-25T07:57:21.588Z,97233.00
2018-11-25T07:58:26.885Z,97236.53
2018-11-25T07:59:31.828Z,97235.95
2018-11-25T08:00:37.349Z,97233.11
2018-11-25T08:01:43.736Z,97239.31
2018-11-25T08:02:50.411Z,97237.84
2018-11-25T08:03:55.819Z,97244.77
2018-11-25T08:05:01.492Z,97240.17
2018-11-25T08:06:06.298Z,97239.41
2018-11-25T08:07:11.480Z,97242.56
2018-11-25T08:08:16.018Z,97241.32
2018-11-25T08:09:21.614Z,97240.55
2018-11-25T08:10:27.052Z,97233.38
2018-11-25T08:11:31.623Z,97231.83
2018-11-25T08:12:36.574Z,97232.01
2018-11-25T08:13:41.597Z,97233.55
2018-11-25T08:14:48.647Z,97232.44
2018-11-25T08:15:54.714Z,97229.59
2018-11-25T08:16:59.758Z,97232.16
2018-11-25T08:18:05.990Z,97229.25
2018-11-25T08:19:13.941Z,97228.30
2018-11-25T08:20:21.537Z,97231.07
2018-11-25T08:22:41.133Z,97226.50
2018-11-25T08:23:48.074Z,97227.09
2018-11-25T08:24:52.733Z,97229.44
2018-11-25T08:25:58.310Z,97228.84
2018-11-25T08:27:02.964Z,97229.28
2018-11-25T08:28:08.302Z,97222.52
2018-11-25T08:29:13.185Z,97226.78
2018-11-25T08:30:20.296Z,97219.89
2018-11-25T08:31:25.664Z,97226.47
2018-11-25T08:32:31.608Z,97225.70
2018-11-25T08:33:37.183Z,97224.62
2018-11-25T08:34:42.008Z,97230.61
2018-11-25T08:35:47.854Z,97226.63
2018-11-25T08:36:53.964Z,97228.09
2018-11-25T08:38:00.217Z,97226.79
2018-11-25T08:39:05.113Z,97230.38
2018-11-25T08:40:11.674Z,97228.41
2018-11-25T08:41:16.395Z,97231.34
2018-11-25T08:42:21.691Z,97231.64
2018-11-25T08:43:27.072Z,97227.23
2018-11-25T08:44:32.174Z,97233.47
2018-11-25T08:45:36.777Z,97232.16
2018-11-25T08:46:42.048Z,97230.31
2018-11-25T08:47:46.678Z,97228.48
2018-11-25T08:48:52.315Z,97226.58
2018-11-25T08:49:57.592Z,97231.63
2018-11-25T08:51:04.250Z,97228.27
2018-11-25T08:52:08.984Z,97233.47
2018-11-25T08:53:13.629Z,97228.85
2018-11-25T08:54:19.031Z,97227.09
2018-11-25T08:55:24.998Z,97235.88
2018-11-25T08:56:30.549Z,97231.84
2018-11-25T08:57:37.097Z,97226.95
2018-11-25T08:58:42.099Z,97232.30
2018-11-25T08:59:46.670Z,97231.86
2018-11-25T09:00:51.326Z,97233.17
2018-11-25T09:02:01.210Z,97230.98
2018-11-25T09:03:09.297Z,97232.16
2018-11-25T09:04:14.001Z,97237.57
2018-11-25T09:05:19.691Z,97230.16
2018-11-25T09:06:25.077Z,97228.48
2018-11-25T09:07:29.653Z,97227.38
2018-11-25T09:08:36.356Z,97227.59
2018-11-25T09:09:41.581Z,97225.98
2018-11-25T09:11:57.587Z,97230.07
2018-11-25T09:13:03.425Z,97226.80
2018-11-25T09:14:10.551Z,97229.50
2018-11-25T09:15:15.737Z,97231.02
2018-11-25T09:16:21.270Z,97235.13
2018-11-25T09:17:26.352Z,97227.81
2018-11-25T09:18:31.224Z,97235.23
2018-11-25T09:19:36.206Z,97234.17
2018-11-25T09:20:40.769Z,97233.30
2018-11-25T09:21:46.268Z,97229.70
2018-11-25T09:22:51.508Z,97228.76
2018-11-25T09:23:56.201Z,97227.08
2018-11-25T09:25:01.477Z,97223.64
2018-11-25T09:26:06.216Z,97221.42
2018-11-25T09:27:10.962Z,97226.63
2018-11-25T09:28:15.528Z,97230.98
2018-11-25T09:29:20.524Z,97229.37
2018-11-25T09:30:25.588Z,97226.80
2018-11-25T09:31:30.593Z,97226.41
2018-11-25T09:32:36.339Z,97222.08
2018-11-25T09:33:41.077Z,97230.22
2018-11-25T09:34:46.672Z,97227.61
2018-11-25T09:35:51.669Z,97220.86
2018-11-25T09:36:56.511Z,97224.10
2018-11-25T09:38:01.192Z,97225.86
2018-11-25T09:39:08.311Z,97224.22
2018-11-25T09:40:13.729Z,97221.59
2018-11-25T09:41:19.022Z,97221.33
2018-11-25T09:42:24.091Z,97223.81
2018-11-25T09:43:28.749Z,97223.98
2018-11-25T09:44:34.358Z,97225.50
2018-11-25T09:45:38.978Z,97222.88
2018-11-25T09:46:44.079Z,97223.89
2018-11-25T09:47:49.337Z,97222.27
2018-11-25T09:48:55.547Z,97225.71
2018-11-25T09:50:00.080Z,97223.38
2018-11-25T09:51:04.951Z,97219.31
2018-11-25T09:52:10.421Z,97225.70
2018-11-25T09:53:15.523Z,97226.25
2018-11-25T09:54:20.497Z,97224.79
2018-11-25T09:55:26.087Z,97232.48
2018-11-25T09:56:30.744Z,97225.00
2018-11-25T09:57:35.555Z,97226.67
2018-11-25T09:58:40.169Z,97228.59
2018-11-25T09:59:45.399Z,97224.02
2018-11-25T10:00:50.558Z,97218.55
2018-11-25T10:01:55.840Z,97225.94
2018-11-25T10:03:00.716Z,97215.53
2018-11-25T10:04:06.094Z,97223.30
2018-11-25T10:05:14.492Z,97216.25
2018-11-25T10:06:19.652Z,97212.34
2018-11-25T10:07:24.311Z,97214.80
2018-11-25T10:08:30.325Z,97217.66
2018-11-25T10:09:36.407Z,97220.36
2018-11-25T10:10:41.116Z,97213.59
2018-11-25T10:11:46.132Z,97217.94
2018-11-25T10:12:51.540Z,97213.19
2018-11-25T10:13:56.381Z,97215.97
2018-11-25T10:15:02.256Z,97210.12
2018-11-25T10:16:07.037Z,97209.55
2018-11-25T10:17:12.685Z,97202.53
2018-11-25T10:18:17.350Z,97202.05
2018-11-25T10:19:22.296Z,97206.84
2018-11-25T10:20:27.466Z,97204.99
2018-11-25T10:21:33.619Z,97205.27
2018-11-25T10:22:39.242Z,97203.66
2018-11-25T10:23:45.099Z,97200.38
2018-11-25T10:24:50.131Z,97200.09
2018-11-25T10:25:55.247Z,97203.31
2018-11-25T10:27:01.057Z,97200.17
2018-11-25T10:28:06.484Z,97199.41
2018-11-25T10:29:11.098Z,97203.34
2018-11-25T10:30:16.132Z,97196.73
2018-11-25T10:31:21.824Z,97202.25
2018-11-25T10:32:26.853Z,97208.50
2018-11-25T10:33:32.593Z,97206.52
2018-11-25T10:34:39.308Z,97201.81
2018-11-25T10:35:43.925Z,97204.23
2018-11-25T10:36:48.634Z,97196.94
2018-11-25T10:37:55.260Z,97201.64
2018-11-25T10:39:00.397Z,97195.22
2018-11-25T10:40:05.961Z,97196.31
2018-11-25T10:41:13.076Z,97198.23
2018-11-25T10:42:18.634Z,97198.51
2018-11-25T10:43:24.841Z,97199.11
2018-11-25T10:44:32.407Z,97195.73
2018-11-25T10:45:37.020Z,97199.03
2018-11-25T10:46:41.613Z,97203.15
2018-11-25T10:47:47.459Z,97195.13
2018-11-25T10:48:54.816Z,97197.02
2018-11-25T10:50:00.830Z,97192.92
2018-11-25T10:51:06.328Z,97193.86
2018-11-25T10:52:10.937Z,97193.88
2018-11-25T10:53:17.270Z,97194.67
2018-11-25T10:54:22.772Z,97198.97
2018-11-25T10:55:27.389Z,97190.92
2018-11-25T10:56:31.970Z,97191.73
2018-11-25T10:57:36.816Z,97192.09
2018-11-25T10:58:41.492Z,97193.91
2018-11-25T10:59:46.109Z,97191.66
2018-11-25T11:00:59.713Z,97190.50
2018-11-25T11:02:11.556Z,97191.55
2018-11-25T11:03:22.677Z,97182.73
2018-11-25T11:04:32.773Z,97185.95
2018-11-25T11:05:42.476Z,97185.19
2018-11-25T11:06:52.841Z,97189.09
2018-11-25T11:07:57.607Z,97180.30
2018-11-25T11:09:05.480Z,97186.39
2018-11-25T11:10:11.799Z,97176.73
2018-11-25T11:11:23.317Z,97175.98
2018-11-25T11:12:28.535Z,97175.33
2018-11-25T11:13:33.957Z,97173.99
2018-11-25T11:14:39.501Z,97177.50
2018-11-25T11:15:45.736Z,97183.81
2018-11-25T11:16:53.963Z,97175.98
2018-11-25T11:17:57.524Z,97180.33
2018-11-25T11:19:04.661Z,97177.83
2018-11-25T11:20:10.374Z,97177.66
2018-11-25T11:21:15.280Z,97176.86
2018-11-25T11:22:22.480Z,97177.58
2018-11-25T11:24:38.742Z,97169.15
2018-11-25T11:25:44.857Z,97172.16
2018-11-25T11:26:50.500Z,97169.66
2018-11-25T11:27:55.399Z,97171.27
2018-11-25T11:29:00.303Z,97166.29
2018-11-25T11:42:57.516Z,97167.98
2018-11-25T11:44:02.375Z,97169.42
2018-11-25T11:45:08.399Z,97170.92
2018-11-25T11:46:13.894Z,97168.69
2018-11-25T11:48:29.463Z,97160.64
2018-11-25T11:49:35.539Z,97156.25
2018-11-25T11:50:40.890Z,97157.14
2018-11-25T11:51:45.646Z,97158.44
2018-11-25T11:52:50.558Z,97158.47
2018-11-25T11:53:59.013Z,97159.28
2018-11-25T11:55:07.365Z,97159.84
2018-11-25T11:56:16.737Z,97153.36
2018-11-25T11:57:22.925Z,97157.25
2018-11-25T11:58:28.775Z,97156.27
2018-11-25T11:59:33.487Z,97157.35
2018-11-25T12:00:40.098Z,97158.33
2018-11-25T12:01:45.161Z,97160.50
2018-11-25T12:02:49.825Z,97153.09
2018-11-25T12:03:54.707Z,97157.70
2018-11-25T12:04:59.916Z,97156.70
2018-11-25T12:06:05.646Z,97159.94
2018-11-25T12:07:10.954Z,97159.80
2018-11-25T12:08:16.059Z,97158.33
2018-11-25T12:09:20.834Z,97160.84
2018-11-25T12:10:26.499Z,97156.44
2018-11-25T12:11:32.053Z,97156.14
2018-11-25T12:12:37.589Z,97157.26
2018-11-25T12:13:44.062Z,97162.17
2018-11-25T12:14:50.292Z,97159.50
2018-11-25T12:15:55.868Z,97154.87
2018-11-25T12:17:00.740Z,97154.87
2018-11-25T12:18:06.169Z,97153.47
2018-11-25T12:19:11.097Z,97149.20
2018-11-25T12:20:16.205Z,97157.77
2018-11-25T12:21:22.766Z,97152.89
2018-11-25T12:22:28.148Z,97151.33
2018-11-25T12:23:33.255Z,97153.16
2018-11-25T12:24:39.252Z,97153.66
2018-11-25T12:25:44.956Z,97153.22
2018-11-25T12:26:50.364Z,97153.16
2018-11-25T12:27:55.187Z,97152.27
2018-11-25T12:29:02.054Z,97158.81
2018-11-25T12:30:08.829Z,97157.30
2018-11-25T12:31:16.862Z,97149.43
2018-11-25T12:32:22.472Z,97152.45
2018-11-25T12:33:30.292Z,97158.16
2018-11-25T12:34:34.976Z,97154.23
2018-11-25T12:35:41.880Z,97153.34
2018-11-25T12:36:46.452Z,97153.84
2018-11-25T12:37:52.722Z,97150.72
2018-11-25T12:38:58.579Z,97155.75
2018-11-25T12:40:07.471Z,97152.36
2018-11-25T12:41:14.399Z,97152.27
2018-11-25T12:42:19.127Z,97147.17
2018-11-25T12:43:25.941Z,97144.22
2018-11-25T12:44:31.315Z,97143.52
2018-11-25T12:45:37.079Z,97144.14
2018-11-25T12:46:43.815Z,97139.31
2018-11-25T12:47:52.632Z,97140.02
2018-11-25T12:48:57.845Z,97142.94
2018-11-25T12:50:03.365Z,97136.95
2018-11-25T12:51:09.828Z,97140.61
2018-11-25T12:52:16.067Z,97136.42
2018-11-25T12:53:23.184Z,97139.38
2018-11-25T12:54:27.812Z,97139.02
2018-11-25T12:55:33.060Z,97129.00
2018-11-25T12:56:38.591Z,97132.94
2018-11-25T12:57:44.446Z,97124.72
2018-11-25T12:58:49.959Z,97122.84
2018-11-25T12:59:56.806Z,97126.32
2018-11-25T13:01:02.132Z,97125.83
2018-11-25T13:02:07.189Z,97123.58
2018-11-25T13:03:14.962Z,97123.64
2018-11-25T13:04:20.584Z,97126.63
2018-11-25T13:05:26.257Z,97125.92
2018-11-25T13:06:32.554Z,97128.78
2018-11-25T13:07:38.856Z,97125.92
2018-11-25T13:08:45.256Z,97130.11
2018-11-25T13:09:50.422Z,97129.77
2018-11-25T13:10:55.507Z,97126.91
2018-11-25T13:12:00.504Z,97125.57
2018-11-25T13:13:05.594Z,97120.30
2018-11-25T13:14:10.744Z,97117.43
2018-11-25T13:15:15.651Z,97118.58
2018-11-25T13:16:20.800Z,97115.32
2018-11-25T13:17:27.311Z,97119.25
2018-11-25T13:18:32.421Z,97120.05
2018-11-25T13:19:37.189Z,97122.81
2018-11-25T13:20:43.143Z,97121.92
2018-11-25T13:21:47.965Z,97120.13
2018-11-25T13:22:52.614Z,97122.17
2018-11-25T13:23:59.280Z,97116.94
2018-11-25T13:25:05.333Z,97121.55
2018-11-25T13:26:10.794Z,97119.17
2018-11-25T13:27:15.653Z,97116.73
2018-11-25T13:28:23.060Z,97118.87
2018-11-25T13:29:29.405Z,97122.45
2018-11-25T13:30:34.055Z,97127.36
2018-11-25T13:31:40.438Z,97132.52
2018-11-25T13:32:49.465Z,97127.83
2018-11-25T13:33:54.289Z,97126.00
2018-11-25T13:35:01.796Z,97124.33
2018-11-25T13:36:09.733Z,97126.80
2018-11-25T13:37:15.174Z,97126.80
2018-11-25T13:38:21.605Z,97118.22
2018-11-25T13:39:26.887Z,97122.38
2018-11-25T13:40:32.835Z,97123.11
2018-11-25T13:41:38.701Z,97121.83
2018-11-25T13:42:44.151Z,97116.27
2018-11-25T13:43:49.265Z,97122.39
2018-11-25T13:44:53.492Z,97123.38
2018-11-25T13:46:00.274Z,97119.24